Ever Ursula — 3FCB9 — position and weather

sailwx.info

Track history (hours):
 
Tides and Currents Weather Stations Pressure Air Temp Water Temp Dewpoint Dewpoint Depression Visibility Wind Speed Wind Dir Waves Ship Positions

Ever Ursula

Last reported at 2015-Mar-28 10:31 UTC. Time now 2015-Mar-28 11:03 UTC.
Position N 37°49' W 122°20'.

Type: Cargo ship. MMSI: 357737000.

Date/timePositionNaut miles runAvg speedWind from/ knotsBaromVisibWave heightAir tempDewpointWater temp
2015-Mar-28 10:31N 37°49' W 122°20'0 0.0
2015-Mar-28 09:31N 37°49' W 122°20'0 0.0
2015-Mar-28 08:31N 37°49' W 122°20'0 0.0
2015-Mar-28 07:31N 37°49' W 122°20'0 0.0
2015-Mar-28 06:31N 37°49' W 122°20'0 0.0
2015-Mar-28 05:31N 37°49' W 122°20'0 0.0
2015-Mar-28 04:31N 37°49' W 122°20'0 0.0
2015-Mar-28 03:31N 37°49' W 122°20'0 0.0
2015-Mar-28 02:31N 37°49' W 122°20'0 0.0
2015-Mar-28 01:25N 37°49' W 122°20'0 0.1
2015-Mar-28 00:32N 37°49' W 122°20'0 0.0
2015-Mar-27 23:31N 37°49' W 122°20'0 0.0
2015-Mar-27 22:31N 37°49' W 122°20'0 0.0
2015-Mar-27 21:31N 37°49' W 122°20'0 0.0
2015-Mar-27 20:31N 37°49' W 122°20'0 0.0
2015-Mar-27 19:31N 37°49' W 122°20'0 0.0
2015-Mar-27 18:31N 37°49' W 122°20'0 0.0
2015-Mar-27 17:31N 37°49' W 122°20'0 0.0
2015-Mar-27 16:31N 37°49' W 122°20'0 0.0
2015-Mar-27 15:31N 37°49' W 122°20'0 0.0
2015-Mar-27 14:33N 37°49' W 122°20'0 0.0
2015-Mar-27 13:33N 37°49' W 122°20'1 0.7
2015-Mar-27 12:33N 37°49' W 122°19'8 8.0
2015-Mar-27 11:33N 37°49' W 122°30'1110.7
2015-Mar-27 10:33N 37°42' W 122°40'1413.9
2015-Mar-27 09:33N 37°28' W 122°39'1514.7
2015-Mar-27 08:33N 37°14' W 122°40'1616.2
2015-Mar-27 07:33N 36°58' W 122°42'1616.4
2015-Mar-27 06:33N 36°41' W 122°44'1616.3
2015-Mar-27 05:33N 36°25' W 122°46'1616.2
2015-Mar-27 04:33N 36°12' W 122°34'1616.6
2015-Mar-27 03:33N 35°59' W 122°22'1716.8
2015-Mar-27 02:33N 35°46' W 122°09'3717.2
2015-Mar-27 00:23N 35°16' W 121°41'1717.3
2015-Mar-26 23:23N 35°02' W 121°28'1517.7
2015-Mar-26 22:33N 34°51' W 121°17'1817.9
2015-Mar-26 21:33N 34°36' W 121°04'1716.8
2015-Mar-26 20:33N 34°25' W 120°48'5417.9
2015-Mar-26 17:33N 34°11' W 119°45'1818.2
2015-Mar-26 16:33N 34°06' W 119°24'1817.8
2015-Mar-26 15:33N 33°59' W 119°05'1716.8
2015-Mar-26 14:33N 33°51' W 118°47'1212.4
2015-Mar-26 13:33N 33°45' W 118°34'1212.3
2015-Mar-26 12:33N 33°39' W 118°21'6 6.5
2015-Mar-26 11:33N 33°44' W 118°16'1 0.9
2015-Mar-26 10:32N 33°45' W 118°16'0 0.0
2015-Mar-26 09:32N 33°45' W 118°16'0 0.0
2015-Mar-26 08:32N 33°45' W 118°16'0 0.0
2015-Mar-26 07:32N 33°45' W 118°16'0 0.0
2015-Mar-26 06:29N 33°45' W 118°16'0 0.0
2015-Mar-26 05:32N 33°45' W 118°16'0 0.0
2015-Mar-26 04:32N 33°45' W 118°16'0 0.0
2015-Mar-26 03:32N 33°45' W 118°16'0 0.0
2015-Mar-26 02:32N 33°45' W 118°16'0 0.0
2015-Mar-26 01:29N 33°45' W 118°16'0 0.0
2015-Mar-26 00:32N 33°45' W 118°16'0 0.0
2015-Mar-25 23:32N 33°45' W 118°16'0 0.0
2015-Mar-25 22:32N 33°45' W 118°16'0 0.0
2015-Mar-25 21:32N 33°45' W 118°16'0 0.0
2015-Mar-25 20:32N 33°45' W 118°16'0 0.0
2015-Mar-25 19:32N 33°45' W 118°16'0 0.0
2015-Mar-25 18:27N 33°45' W 118°16'0 0.0
2015-Mar-25 17:21N 33°45' W 118°16'0 0.0
2015-Mar-25 16:30N 33°45' W 118°16'0 0.0
2015-Mar-25 15:06N 33°45' W 118°16'0 0.0
2015-Mar-25 14:33N 33°45' W 118°16'0 0.0
2015-Mar-25 13:33N 33°45' W 118°16'0 0.0
2015-Mar-25 12:30N 33°45' W 118°16'0 0.1
2015-Mar-25 11:33N 33°45' W 118°16'0 0.1
2015-Mar-25 10:27N 33°45' W 118°16'0 0.0
2015-Mar-25 09:33N 33°45' W 118°16'0 0.0
2015-Mar-25 08:33N 33°45' W 118°16'0 0.0
2015-Mar-25 07:33N 33°45' W 118°16'0 0.0
2015-Mar-25 06:33N 33°45' W 118°16'0 0.0
2015-Mar-25 05:33N 33°45' W 118°16'0 0.0
2015-Mar-25 04:33N 33°45' W 118°16'0 0.0
2015-Mar-25 03:24N 33°45' W 118°16'0 0.0
2015-Mar-25 02:33N 33°45' W 118°16'0 0.0
2015-Mar-25 01:31N 33°45' W 118°16'0 0.0
2015-Mar-25 00:31N 33°45' W 118°16'0 0.0
2015-Mar-24 23:13N 33°45' W 118°16'0 0.0
2015-Mar-24 22:22N 33°45' W 118°16'0 0.0
2015-Mar-24 21:31N 33°45' W 118°16'0 0.0
2015-Mar-24 19:31N 33°45' W 118°16'0 0.0
2015-Mar-24 18:31N 33°45' W 118°16'0 0.0
2015-Mar-24 17:16N 33°45' W 118°16'0 0.0
2015-Mar-24 16:04N 33°45' W 118°16'0 0.0
2015-Mar-24 11:11N 33°45' W 118°16'0 0.0
2015-Mar-24 10:32N 33°45' W 118°16'0 0.0
2015-Mar-24 08:14N 33°45' W 118°16'0 0.0
2015-Mar-24 05:08N 33°45' W 118°16'0 0.0
2015-Mar-24 03:20N 33°45' W 118°16'0 0.0
2015-Mar-24 02:32N 33°45' W 118°16'0 0.0
2015-Mar-24 01:32N 33°45' W 118°16'0 0.0
2015-Mar-24 00:17N 33°45' W 118°16'0 0.0
2015-Mar-23 23:26N 33°45' W 118°16'0 0.0
2015-Mar-23 22:07N 33°45' W 118°16'0 0.0
2015-Mar-23 21:16N 33°45' W 118°16'0 0.0
2015-Mar-23 18:25N 33°45' W 118°16'0 0.0
2015-Mar-23 16:07N 33°45' W 118°16'0 0.0
2015-Mar-23 15:04N 33°45' W 118°16'0 0.1
2015-Mar-23 12:33N 33°45' W 118°16'4 4.5
2015-Mar-23 11:32N 33°43' W 118°12'0 0.1
2015-Mar-23 10:31N 33°43' W 118°12'0 0.0
2015-Mar-23 09:28N 33°43' W 118°12'0 0.0
2015-Mar-23 08:31N 33°43' W 118°12'0 0.0
2015-Mar-23 07:31N 33°43' W 118°12'0 0.0
2015-Mar-23 06:31N 33°43' W 118°12'0 0.0
2015-Mar-23 05:28N 33°43' W 118°12'0 0.0
2015-Mar-23 04:31N 33°43' W 118°12'0 0.1
2015-Mar-23 03:28N 33°43' W 118°12'0 0.1
2015-Mar-23 02:31N 33°43' W 118°12'0 0.0
2015-Mar-23 01:31N 33°43' W 118°12'0 0.0
2015-Mar-23 00:28N 33°43' W 118°12'0 0.1
2015-Mar-22 23:31N 33°43' W 118°12'0 0.1
2015-Mar-22 22:31N 33°43' W 118°12'0 0.0
2015-Mar-22 21:16N 33°43' W 118°12'0 0.0
2015-Mar-22 20:25N 33°43' W 118°12'0 0.0
2015-Mar-22 19:04N 33°43' W 118°12'0 0.1
2015-Mar-22 18:07N 33°43' W 118°12'0 0.0
2015-Mar-22 13:14N 33°43' W 118°12'0 0.0
2015-Mar-22 11:26N 33°43' W 118°12'0 0.0
2015-Mar-22 10:23N 33°43' W 118°12'0 0.1
2015-Mar-22 09:29N 33°43' W 118°12'0 0.1
2015-Mar-22 08:26N 33°43' W 118°12'0 0.1
2015-Mar-22 07:32N 33°43' W 118°12'0 0.0
2015-Mar-22 06:32N 33°43' W 118°12'0 0.0
2015-Mar-22 05:32N 33°43' W 118°12'0 0.0
2015-Mar-22 04:17N 33°43' W 118°12'0 0.0
2015-Mar-22 03:05N 33°43' W 118°12'0 0.0
2015-Mar-22 02:29N 33°43' W 118°12'0 0.0
2015-Mar-22 01:32N 33°43' W 118°12'0 0.1
2015-Mar-22 00:32N 33°43' W 118°12'0 0.0
2015-Mar-21 23:32N 33°43' W 118°12'0 0.0
2015-Mar-21 22:29N 33°43' W 118°12'0 0.0
2015-Mar-21 21:32N 33°43' W 118°12'0 0.1
2015-Mar-21 20:32N 33°43' W 118°12'0 0.0
2015-Mar-21 19:29N 33°43' W 118°12'0 0.1
2015-Mar-21 18:33N 33°43' W 118°12'0 0.0
2015-Mar-21 17:33N 33°43' W 118°12'0 0.1
2015-Mar-21 16:33N 33°43' W 118°12'0 0.1
2015-Mar-21 15:33N 33°43' W 118°12'0 0.0
2015-Mar-21 14:33N 33°43' W 118°12'0 0.0
2015-Mar-21 13:33N 33°43' W 118°12'0 0.1
2015-Mar-21 12:33N 33°43' W 118°12'0 0.0
2015-Mar-21 11:33N 33°43' W 118°12'0 0.1
2015-Mar-21 10:33N 33°43' W 118°12'0 0.1
2015-Mar-21 09:30N 33°43' W 118°12'0 0.1
2015-Mar-21 08:33N 33°43' W 118°12'0 0.0
2015-Mar-21 07:33N 33°43' W 118°12'0 0.0
2015-Mar-21 06:33N 33°43' W 118°12'0 0.0
2015-Mar-21 05:33N 33°43' W 118°12'0 0.1
2015-Mar-21 04:27N 33°43' W 118°12'0 0.0
2015-Mar-21 03:30N 33°43' W 118°12'0 0.1
2015-Mar-21 02:33N 33°43' W 118°12'0 0.0
2015-Mar-21 01:33N 33°43' W 118°12'0 0.0
2015-Mar-21 00:33N 33°43' W 118°12'0 0.0
2015-Mar-20 23:33N 33°43' W 118°12'2 2.3
2015-Mar-20 22:33N 33°40' W 118°11'9 9.3
2015-Mar-20 21:33N 33°32' W 118°08'1211.6
2015-Mar-20 20:33N 33°21' W 118°03'1212.0
2015-Mar-20 19:33N 33°09' W 117°59'1211.9
2015-Mar-20 18:33N 32°58' W 117°55'1212.1
2015-Mar-20 17:33N 32°46' W 117°51'1212.4
2015-Mar-20 16:33N 32°34' W 117°47'1212.1
2015-Mar-20 15:33N 32°22' W 117°46'1110.5
2015-Mar-20 14:32N 32°13' W 117°40'1313.0
2015-Mar-20 13:33N 32°01' W 117°33'3 2.6
2015-Mar-20 12:12N 32°04' W 117°32'1 0.7
2015-Mar-20 11:30N 32°05' W 117°32'1 0.8
2015-Mar-20 10:29N 32°05' W 117°33'1 1.0
2015-Mar-20 09:28N 32°06' W 117°34'1 0.9
2015-Mar-20 08:33N 32°06' W 117°35'1 0.8
2015-Mar-20 07:33N 32°06' W 117°36'1 0.9
2015-Mar-20 06:33N 32°07' W 117°37'1 0.9
2015-Mar-20 05:32N 32°07' W 117°38'1 0.9
2015-Mar-20 04:28N 32°07' W 117°39'1 1.1
2015-Mar-20 03:33N 32°08' W 117°40'1 1.2
2015-Mar-20 02:33N 32°08' W 117°41'1 1.3
2015-Mar-20 01:33N 32°08' W 117°43'1 1.4
2015-Mar-20 00:31N 32°08' W 117°44'1 1.4
2015-Mar-19 23:33N 32°08' W 117°46'2 1.5
2015-Mar-19 22:33N 32°08' W 117°48'2 1.5
2015-Mar-19 21:33N 32°09' W 117°50'1 1.5
2015-Mar-19 20:33N 32°09' W 117°51'1 1.2
2015-Mar-19 19:33N 32°09' W 117°53'1 1.1
2015-Mar-19 18:33N 32°09' W 117°54'0 0.0
2015-Mar-19 17:30N 32°09' W 117°54'1411.8
2015-Mar-19 16:21N 32°00' W 117°42'12 2.0
2015-Mar-19 10:17N 31°51' W 117°32'2 0.8
2015-Mar-19 07:16N 31°53' W 117°34'1 0.8
2015-Mar-19 06:30N 31°53' W 117°35'1 0.7
2015-Mar-19 05:32N 31°54' W 117°35'1 0.9
2015-Mar-19 04:23N 31°54' W 117°36'1 1.1
2015-Mar-19 03:30N 31°55' W 117°37'1 1.2
2015-Mar-19 02:33N 31°56' W 117°38'2 1.6
2015-Mar-19 01:33N 31°57' W 117°39'2 1.8
2015-Mar-19 00:33N 31°58' W 117°41'2 1.6
2015-Mar-18 23:33N 31°59' W 117°42'2 1.5
2015-Mar-18 22:20N 32°00' W 117°44'1 1.5
2015-Mar-18 21:33N 32°01' W 117°45'1 1.3
2015-Mar-18 20:33N 32°02' W 117°46'1 1.3
2015-Mar-18 19:33N 32°03' W 117°47'1 1.1
2015-Mar-18 18:33N 32°03' W 117°48'1 0.9
2015-Mar-18 17:30N 32°02' W 117°49'2412.3
2015-Mar-18 15:33N 31°51' W 117°24'4 1.9
2015-Mar-18 13:33N 31°50' W 117°20'2 1.1
2015-Mar-18 11:15N 31°51' W 117°22'  
Track history (hours):
 
Tides and Currents Weather Stations Pressure Air Temp Water Temp Dewpoint Dewpoint Depression Visibility Wind Speed Wind Dir Waves Ship Positions

Ever Ursula

Last reported at 2015-Mar-28 10:31 UTC. Time now 2015-Mar-28 11:03 UTC.
Position N 37°49' W 122°20'.

Type: Cargo ship. MMSI: 357737000.

Date/timePositionNaut miles runAvg speedWind from/ knotsBaromVisibWave heightAir tempDewpointWater temp
2015-Mar-28 10:31N 37°49' W 122°20'0 0.0
2015-Mar-28 09:31N 37°49' W 122°20'0 0.0
2015-Mar-28 08:31N 37°49' W 122°20'0 0.0
2015-Mar-28 07:31N 37°49' W 122°20'0 0.0
2015-Mar-28 06:31N 37°49' W 122°20'0 0.0
2015-Mar-28 05:31N 37°49' W 122°20'0 0.0
2015-Mar-28 04:31N 37°49' W 122°20'0 0.0
2015-Mar-28 03:31N 37°49' W 122°20'0 0.0
2015-Mar-28 02:31N 37°49' W 122°20'0 0.0
2015-Mar-28 01:25N 37°49' W 122°20'0 0.1
2015-Mar-28 00:32N 37°49' W 122°20'0 0.0
2015-Mar-27 23:31N 37°49' W 122°20'0 0.0
2015-Mar-27 22:31N 37°49' W 122°20'0 0.0
2015-Mar-27 21:31N 37°49' W 122°20'0 0.0
2015-Mar-27 20:31N 37°49' W 122°20'0 0.0
2015-Mar-27 19:31N 37°49' W 122°20'0 0.0
2015-Mar-27 18:31N 37°49' W 122°20'0 0.0
2015-Mar-27 17:31N 37°49' W 122°20'0 0.0
2015-Mar-27 16:31N 37°49' W 122°20'0 0.0
2015-Mar-27 15:31N 37°49' W 122°20'0 0.0
2015-Mar-27 14:33N 37°49' W 122°20'0 0.0
2015-Mar-27 13:33N 37°49' W 122°20'1 0.7
2015-Mar-27 12:33N 37°49' W 122°19'8 8.0
2015-Mar-27 11:33N 37°49' W 122°30'1110.7
2015-Mar-27 10:33N 37°42' W 122°40'1413.9
2015-Mar-27 09:33N 37°28' W 122°39'1514.7
2015-Mar-27 08:33N 37°14' W 122°40'1616.2
2015-Mar-27 07:33N 36°58' W 122°42'1616.4
2015-Mar-27 06:33N 36°41' W 122°44'1616.3
2015-Mar-27 05:33N 36°25' W 122°46'1616.2
2015-Mar-27 04:33N 36°12' W 122°34'1616.6
2015-Mar-27 03:33N 35°59' W 122°22'1716.8
2015-Mar-27 02:33N 35°46' W 122°09'3717.2
2015-Mar-27 00:23N 35°16' W 121°41'1717.3
2015-Mar-26 23:23N 35°02' W 121°28'1517.7
2015-Mar-26 22:33N 34°51' W 121°17'1817.9
2015-Mar-26 21:33N 34°36' W 121°04'1716.8
2015-Mar-26 20:33N 34°25' W 120°48'5417.9
2015-Mar-26 17:33N 34°11' W 119°45'1818.2
2015-Mar-26 16:33N 34°06' W 119°24'1817.8
2015-Mar-26 15:33N 33°59' W 119°05'1716.8
2015-Mar-26 14:33N 33°51' W 118°47'1212.4
2015-Mar-26 13:33N 33°45' W 118°34'1212.3
2015-Mar-26 12:33N 33°39' W 118°21'6 6.5
2015-Mar-26 11:33N 33°44' W 118°16'1 0.9
2015-Mar-26 10:32N 33°45' W 118°16'0 0.0
2015-Mar-26 09:32N 33°45' W 118°16'0 0.0
2015-Mar-26 08:32N 33°45' W 118°16'0 0.0
2015-Mar-26 07:32N 33°45' W 118°16'0 0.0
2015-Mar-26 06:29N 33°45' W 118°16'0 0.0
2015-Mar-26 05:32N 33°45' W 118°16'0 0.0
2015-Mar-26 04:32N 33°45' W 118°16'0 0.0
2015-Mar-26 03:32N 33°45' W 118°16'0 0.0
2015-Mar-26 02:32N 33°45' W 118°16'0 0.0
2015-Mar-26 01:29N 33°45' W 118°16'0 0.0
2015-Mar-26 00:32N 33°45' W 118°16'0 0.0
2015-Mar-25 23:32N 33°45' W 118°16'0 0.0
2015-Mar-25 22:32N 33°45' W 118°16'0 0.0
2015-Mar-25 21:32N 33°45' W 118°16'0 0.0
2015-Mar-25 20:32N 33°45' W 118°16'0 0.0
2015-Mar-25 19:32N 33°45' W 118°16'0 0.0
2015-Mar-25 18:27N 33°45' W 118°16'0 0.0
2015-Mar-25 17:21N 33°45' W 118°16'0 0.0
2015-Mar-25 16:30N 33°45' W 118°16'0 0.0
2015-Mar-25 15:06N 33°45' W 118°16'0 0.0
2015-Mar-25 14:33N 33°45' W 118°16'0 0.0
2015-Mar-25 13:33N 33°45' W 118°16'0 0.0
2015-Mar-25 12:30N 33°45' W 118°16'0 0.1
2015-Mar-25 11:33N 33°45' W 118°16'0 0.1
2015-Mar-25 10:27N 33°45' W 118°16'0 0.0
2015-Mar-25 09:33N 33°45' W 118°16'0 0.0
2015-Mar-25 08:33N 33°45' W 118°16'0 0.0
2015-Mar-25 07:33N 33°45' W 118°16'0 0.0
2015-Mar-25 06:33N 33°45' W 118°16'0 0.0
2015-Mar-25 05:33N 33°45' W 118°16'0 0.0
2015-Mar-25 04:33N 33°45' W 118°16'0 0.0
2015-Mar-25 03:24N 33°45' W 118°16'0 0.0
2015-Mar-25 02:33N 33°45' W 118°16'0 0.0
2015-Mar-25 01:31N 33°45' W 118°16'0 0.0
2015-Mar-25 00:31N 33°45' W 118°16'0 0.0
2015-Mar-24 23:13N 33°45' W 118°16'0 0.0
2015-Mar-24 22:22N 33°45' W 118°16'0 0.0
2015-Mar-24 21:31N 33°45' W 118°16'0 0.0
2015-Mar-24 19:31N 33°45' W 118°16'0 0.0
2015-Mar-24 18:31N 33°45' W 118°16'0 0.0
2015-Mar-24 17:16N 33°45' W 118°16'0 0.0
2015-Mar-24 16:04N 33°45' W 118°16'0 0.0
2015-Mar-24 11:11N 33°45' W 118°16'0 0.0
2015-Mar-24 10:32N 33°45' W 118°16'0 0.0
2015-Mar-24 08:14N 33°45' W 118°16'0 0.0
2015-Mar-24 05:08N 33°45' W 118°16'0 0.0
2015-Mar-24 03:20N 33°45' W 118°16'0 0.0
2015-Mar-24 02:32N 33°45' W 118°16'0 0.0
2015-Mar-24 01:32N 33°45' W 118°16'0 0.0
2015-Mar-24 00:17N 33°45' W 118°16'0 0.0
2015-Mar-23 23:26N 33°45' W 118°16'0 0.0
2015-Mar-23 22:07N 33°45' W 118°16'0 0.0
2015-Mar-23 21:16N 33°45' W 118°16'0 0.0
2015-Mar-23 18:25N 33°45' W 118°16'0 0.0
2015-Mar-23 16:07N 33°45' W 118°16'0 0.0
2015-Mar-23 15:04N 33°45' W 118°16'0 0.1
2015-Mar-23 12:33N 33°45' W 118°16'4 4.5
2015-Mar-23 11:32N 33°43' W 118°12'0 0.1
2015-Mar-23 10:31N 33°43' W 118°12'0 0.0
2015-Mar-23 09:28N 33°43' W 118°12'0 0.0
2015-Mar-23 08:31N 33°43' W 118°12'0 0.0
2015-Mar-23 07:31N 33°43' W 118°12'0 0.0
2015-Mar-23 06:31N 33°43' W 118°12'0 0.0
2015-Mar-23 05:28N 33°43' W 118°12'0 0.0
2015-Mar-23 04:31N 33°43' W 118°12'0 0.1
2015-Mar-23 03:28N 33°43' W 118°12'0 0.1
2015-Mar-23 02:31N 33°43' W 118°12'0 0.0
2015-Mar-23 01:31N 33°43' W 118°12'0 0.0
2015-Mar-23 00:28N 33°43' W 118°12'0 0.1
2015-Mar-22 23:31N 33°43' W 118°12'0 0.1
2015-Mar-22 22:31N 33°43' W 118°12'0 0.0
2015-Mar-22 21:16N 33°43' W 118°12'0 0.0
2015-Mar-22 20:25N 33°43' W 118°12'0 0.0
2015-Mar-22 19:04N 33°43' W 118°12'0 0.1
2015-Mar-22 18:07N 33°43' W 118°12'0 0.0
2015-Mar-22 13:14N 33°43' W 118°12'0 0.0
2015-Mar-22 11:26N 33°43' W 118°12'0 0.0
2015-Mar-22 10:23N 33°43' W 118°12'0 0.1
2015-Mar-22 09:29N 33°43' W 118°12'0 0.1
2015-Mar-22 08:26N 33°43' W 118°12'0 0.1
2015-Mar-22 07:32N 33°43' W 118°12'0 0.0
2015-Mar-22 06:32N 33°43' W 118°12'0 0.0
2015-Mar-22 05:32N 33°43' W 118°12'0 0.0
2015-Mar-22 04:17N 33°43' W 118°12'0 0.0
2015-Mar-22 03:05N 33°43' W 118°12'0 0.0
2015-Mar-22 02:29N 33°43' W 118°12'0 0.0
2015-Mar-22 01:32N 33°43' W 118°12'0 0.1
2015-Mar-22 00:32N 33°43' W 118°12'0 0.0
2015-Mar-21 23:32N 33°43' W 118°12'0 0.0
2015-Mar-21 22:29N 33°43' W 118°12'0 0.0
2015-Mar-21 21:32N 33°43' W 118°12'0 0.1
2015-Mar-21 20:32N 33°43' W 118°12'0 0.0
2015-Mar-21 19:29N 33°43' W 118°12'0 0.1
2015-Mar-21 18:33N 33°43' W 118°12'0 0.0
2015-Mar-21 17:33N 33°43' W 118°12'0 0.1
2015-Mar-21 16:33N 33°43' W 118°12'0 0.1
2015-Mar-21 15:33N 33°43' W 118°12'0 0.0
2015-Mar-21 14:33N 33°43' W 118°12'0 0.0
2015-Mar-21 13:33N 33°43' W 118°12'0 0.1
2015-Mar-21 12:33N 33°43' W 118°12'0 0.0
2015-Mar-21 11:33N 33°43' W 118°12'0 0.1
2015-Mar-21 10:33N 33°43' W 118°12'0 0.1
2015-Mar-21 09:30N 33°43' W 118°12'0 0.1
2015-Mar-21 08:33N 33°43' W 118°12'0 0.0
2015-Mar-21 07:33N 33°43' W 118°12'0 0.0
2015-Mar-21 06:33N 33°43' W 118°12'0 0.0
2015-Mar-21 05:33N 33°43' W 118°12'0 0.1
2015-Mar-21 04:27N 33°43' W 118°12'0 0.0
2015-Mar-21 03:30N 33°43' W 118°12'0 0.1
2015-Mar-21 02:33N 33°43' W 118°12'0 0.0
2015-Mar-21 01:33N 33°43' W 118°12'0 0.0
2015-Mar-21 00:33N 33°43' W 118°12'0 0.0
2015-Mar-20 23:33N 33°43' W 118°12'2 2.3
2015-Mar-20 22:33N 33°40' W 118°11'9 9.3
2015-Mar-20 21:33N 33°32' W 118°08'1211.6
2015-Mar-20 20:33N 33°21' W 118°03'1212.0
2015-Mar-20 19:33N 33°09' W 117°59'1211.9
2015-Mar-20 18:33N 32°58' W 117°55'1212.1
2015-Mar-20 17:33N 32°46' W 117°51'1212.4
2015-Mar-20 16:33N 32°34' W 117°47'1212.1
2015-Mar-20 15:33N 32°22' W 117°46'1110.5
2015-Mar-20 14:32N 32°13' W 117°40'1313.0
2015-Mar-20 13:33N 32°01' W 117°33'3 2.6
2015-Mar-20 12:12N 32°04' W 117°32'1 0.7
2015-Mar-20 11:30N 32°05' W 117°32'1 0.8
2015-Mar-20 10:29N 32°05' W 117°33'1 1.0
2015-Mar-20 09:28N 32°06' W 117°34'1 0.9
2015-Mar-20 08:33N 32°06' W 117°35'1 0.8
2015-Mar-20 07:33N 32°06' W 117°36'1 0.9
2015-Mar-20 06:33N 32°07' W 117°37'1 0.9
2015-Mar-20 05:32N 32°07' W 117°38'1 0.9
2015-Mar-20 04:28N 32°07' W 117°39'1 1.1
2015-Mar-20 03:33N 32°08' W 117°40'1 1.2
2015-Mar-20 02:33N 32°08' W 117°41'1 1.3
2015-Mar-20 01:33N 32°08' W 117°43'1 1.4
2015-Mar-20 00:31N 32°08' W 117°44'1 1.4
2015-Mar-19 23:33N 32°08' W 117°46'2 1.5
2015-Mar-19 22:33N 32°08' W 117°48'2 1.5
2015-Mar-19 21:33N 32°09' W 117°50'1 1.5
2015-Mar-19 20:33N 32°09' W 117°51'1 1.2
2015-Mar-19 19:33N 32°09' W 117°53'1 1.1
2015-Mar-19 18:33N 32°09' W 117°54'0 0.0
2015-Mar-19 17:30N 32°09' W 117°54'1411.8
2015-Mar-19 16:21N 32°00' W 117°42'12 2.0
2015-Mar-19 10:17N 31°51' W 117°32'2 0.8
2015-Mar-19 07:16N 31°53' W 117°34'1 0.8
2015-Mar-19 06:30N 31°53' W 117°35'1 0.7
2015-Mar-19 05:32N 31°54' W 117°35'1 0.9
2015-Mar-19 04:23N 31°54' W 117°36'1 1.1
2015-Mar-19 03:30N 31°55' W 117°37'1 1.2
2015-Mar-19 02:33N 31°56' W 117°38'2 1.6
2015-Mar-19 01:33N 31°57' W 117°39'2 1.8
2015-Mar-19 00:33N 31°58' W 117°41'2 1.6
2015-Mar-18 23:33N 31°59' W 117°42'2 1.5
2015-Mar-18 22:20N 32°00' W 117°44'1 1.5
2015-Mar-18 21:33N 32°01' W 117°45'1 1.3
2015-Mar-18 20:33N 32°02' W 117°46'1 1.3
2015-Mar-18 19:33N 32°03' W 117°47'1 1.1
2015-Mar-18 18:33N 32°03' W 117°48'1 0.9
2015-Mar-18 17:30N 32°02' W 117°49'2412.3
2015-Mar-18 15:33N 31°51' W 117°24'4 1.9
2015-Mar-18 13:33N 31°50' W 117°20'2 1.1
2015-Mar-18 11:15N 31°51' W 117°22'  

Dump ship's entire track history